Boring, Oregon
Current Conditions -  °F | °C
As of 4:53 PM on Sunday 21 Dec 2014 (Local Time) from KTTD Reporting Station
Light Rain Light Rain  
Wind Chill: 54°   Ceiling: 3700
Heat Index: 54°   Visibility: 10mi
Dew Point: 51°   Wind: 8mph
Humidity: 90%   Direction: 240°WSW
Pressure: 30.12"   Gusts: NA
Location:  45.43°N, 122.38°W
Report Text: KTTD 220053Z 24007KT 10SM -RA FEW027 BKN037 OVC050 12/11 A3012 RMK AO2 RAB06 SLP200 P0001 T01220106
Loading
Personal Weather Stations






























Interactive Weather Map New forecast layout! Learn more

10-Day Weather Forecast

Advertisements
Track Severe Weather on mobile